Flight Track Log - Related Links

Times and Time Zones

All times are in EDT time to prevent confusion due to time zone crossing. See the CSN6867 flight status page for this flight to view local times or setup timezone preferences in your user account.

Time Position Orientation Groundspeed Altitude Reporting Facility
EDT Latitude Longitude Course Direction KTS MPH feet Rate Location/Type
Sat 10:41:00 AM 42.7559 84.1204 246° West  Level Estimated
Sat 10:42:00 AM 42.7097 83.9940 244° Southwest  Level Estimated
Sat 10:43:00 AM 42.6634 83.8677 244° Southwest  Level Estimated
Sat 10:44:00 AM 42.6169 83.7416 243° Southwest  Level Estimated
Sat 10:45:00 AM 42.5703 83.6157 243° Southwest  Level Estimated
Sat 10:46:00 AM 42.5235 83.4900 243° Southwest  Level Estimated
Sat 10:47:00 AM 42.4766 83.3645 243° Southwest  Level Estimated
Sat 10:48:00 AM 42.4296 83.2392 243° Southwest  Level Estimated
Sat 10:49:00 AM 42.3824 83.1141 243° Southwest  Level Estimated
Sat 10:50:00 AM 42.3351 82.9891 243° Southwest  Level Estimated
Sat 10:51:00 AM 42.2877 82.8644 243° Southwest  Level Estimated
Sat 10:52:00 AM 42.2401 82.7398 243° Southwest  Level Estimated
Sat 10:53:00 AM 42.1924 82.6154 243° Southwest  Level Estimated
Sat 10:54:00 AM 42.1445 82.4912 243° Southwest  Level Estimated
Sat 10:55:00 AM 42.0966 82.3672 242° Southwest  Level Estimated
Sat 10:56:00 AM 42.0485 82.2434 242° Southwest  Level Estimated
Sat 10:57:00 AM 42.0002 82.1198 242° Southwest  Level Estimated
Sat 10:58:00 AM 41.9518 81.9963 242° Southwest  Level Estimated
Sat 10:59:00 AM 41.9033 81.8731 242° Southwest  Level Estimated
Sat 11:00:00 AM 41.8547 81.7500 242° Southwest  Level Estimated
Sat 11:01:00 AM 41.8059 81.6271 242° Southwest  Level Estimated
Sat 11:02:00 AM 41.7570 81.5044 242° Southwest  Level Estimated
Sat 11:03:00 AM 41.7080 81.3819 242° Southwest  Level Estimated
Sat 11:04:00 AM 41.6588 81.2596 242° Southwest  Level Estimated
Sat 11:05:00 AM 41.6095 81.1375 242° Southwest  Level Estimated
Sat 11:06:00 AM 41.5601 81.0155 242° Southwest  Level Estimated
Sat 11:07:00 AM 41.5106 80.8938 242° Southwest  Level Estimated
Sat 11:08:00 AM 41.4609 80.7722 241° Southwest  Level Estimated
Sat 11:09:00 AM 41.4111 80.6508 241° Southwest  Level Estimated
Sat 11:10:00 AM 41.3611 80.5296 241° Southwest  Level Estimated
Sat 11:11:00 AM 41.3111 80.4086 241° Southwest  Level Estimated
Sat 11:12:00 AM 41.2625 80.2917 241° Southwest  Level Estimated
Sat 11:13:00 AM 41.2625 80.2917 North  Level Estimated
Sat 11:14:00 AM 41.2625 80.2917 North  Level Estimated
Sat 11:15:00 AM 41.2625 80.2917 North  Level Estimated
Sat 11:16:00 AM 41.2625 80.2917 North  Level Estimated
Sat 11:17:00 AM 41.2625 80.2917 North  Level Estimated
Sat 11:18:00 AM 41.2625 80.2917 North  Level Estimated
Sat 11:19:00 AM 41.2625 80.2917 North  Level Estimated
Sat 11:20:00 AM 41.2625 80.2917 North  Level Estimated
Sat 11:21:00 AM 41.2625 80.2917 North  Level Estimated
Sat 11:22:00 AM 41.2625 80.2917 North  Level Estimated
Sat 11:23:00 AM 41.2625 80.2917 North  Level Estimated

Login

Don't have an account? Register now (free) for customized features, flight alerts, and more!